createdAt,value
2023-05-22T00:00:21.465Z,93.90
2023-05-22T00:02:48.683Z,94.10
2023-05-22T00:05:15.748Z,94.40
2023-05-22T00:07:43.557Z,94.90
2023-05-22T00:10:11.039Z,96.30
2023-05-22T00:12:38.109Z,96.40
2023-05-22T00:15:05.319Z,96.70
2023-05-22T00:17:34.415Z,97.50
2023-05-22T00:20:08.169Z,97.60
2023-05-22T00:22:35.984Z,97.50
2023-05-22T00:25:04.000Z,98.30
2023-05-22T00:27:31.023Z,98.20
2023-05-22T00:29:58.429Z,98.30
2023-05-22T00:32:26.059Z,98.30
2023-05-22T00:34:53.134Z,98.40
2023-05-22T00:37:20.405Z,98.90
2023-05-22T00:39:47.533Z,99.20
2023-05-22T00:42:14.925Z,99.40
2023-05-22T00:44:42.155Z,99.20
2023-05-22T00:47:09.333Z,99.00
2023-05-22T00:49:36.493Z,99.70
2023-05-22T00:52:03.678Z,99.90
2023-05-22T00:54:31.620Z,99.20
2023-05-22T00:57:00.717Z,99.10
2023-05-22T00:59:29.462Z,98.10
2023-05-22T01:01:57.517Z,97.80
2023-05-22T01:04:25.326Z,97.50
2023-05-22T01:06:53.158Z,97.10
2023-05-22T01:09:20.292Z,96.20
2023-05-22T01:11:53.555Z,95.90
2023-05-22T01:14:29.964Z,95.60
2023-05-22T01:17:08.925Z,95.60
2023-05-22T01:19:41.205Z,96.00
2023-05-22T01:22:21.804Z,95.70
2023-05-22T01:24:55.210Z,95.80
2023-05-22T01:27:26.267Z,95.30
2023-05-22T01:30:12.391Z,95.60
2023-05-22T01:32:40.910Z,95.30
2023-05-22T01:35:11.012Z,95.90
2023-05-22T01:37:39.092Z,95.90
2023-05-22T01:40:07.789Z,96.20
2023-05-22T01:42:34.868Z,96.10
2023-05-22T01:45:02.103Z,95.80
2023-05-22T01:47:29.243Z,96.20
2023-05-22T01:49:57.841Z,96.40
2023-05-22T01:52:48.337Z,96.70
2023-05-22T01:55:27.640Z,96.30
2023-05-22T01:58:10.621Z,96.50
2023-05-22T02:00:39.166Z,96.60
2023-05-22T02:03:14.091Z,96.90
2023-05-22T02:05:42.616Z,96.70
2023-05-22T02:08:10.790Z,97.00
2023-05-22T02:10:42.300Z,97.20
2023-05-22T02:13:10.935Z,97.20
2023-05-22T02:15:38.296Z,97.40
2023-05-22T02:18:10.147Z,97.30
2023-05-22T02:20:37.389Z,97.50
2023-05-22T02:23:05.153Z,97.70
2023-05-22T02:25:32.189Z,98.20
2023-05-22T02:28:00.104Z,98.00
2023-05-22T02:30:27.434Z,98.30
2023-05-22T02:32:57.578Z,98.40
2023-05-22T02:35:24.846Z,98.20
2023-05-22T02:37:55.224Z,98.30
2023-05-22T02:40:22.397Z,98.50
2023-05-22T02:42:50.557Z,98.70
2023-05-22T02:45:18.765Z,99.10
2023-05-22T02:47:48.851Z,99.10
2023-05-22T02:50:16.157Z,99.90
2023-05-22T02:52:45.325Z,99.90
2023-05-22T02:55:12.675Z,99.90
2023-05-22T02:57:39.840Z,99.90
2023-05-22T03:00:07.305Z,99.90
2023-05-22T03:02:35.040Z,99.60
2023-05-22T03:05:02.165Z,99.40
2023-05-22T03:07:31.959Z,99.40
2023-05-22T03:09:59.112Z,99.20
2023-05-22T03:12:26.367Z,99.60
2023-05-22T03:14:53.784Z,99.40
2023-05-22T03:17:21.055Z,98.90
2023-05-22T03:19:48.329Z,98.70
2023-05-22T03:22:15.561Z,98.80
2023-05-22T03:24:42.838Z,98.90
2023-05-22T03:27:11.782Z,99.10
2023-05-22T03:29:41.776Z,98.10
2023-05-22T03:32:08.985Z,98.00
2023-05-22T03:34:36.508Z,97.80
2023-05-22T03:37:05.473Z,97.60
2023-05-22T03:39:32.775Z,97.00
2023-05-22T03:42:06.531Z,97.20
2023-05-22T03:44:33.713Z,96.70
2023-05-22T03:47:01.585Z,96.60
2023-05-22T03:49:30.864Z,96.50
2023-05-22T03:51:57.957Z,96.70
2023-05-22T03:54:25.007Z,96.60
2023-05-22T03:56:52.181Z,96.80
2023-05-22T03:59:20.098Z,97.30
2023-05-22T04:01:47.291Z,96.20
2023-05-22T04:04:14.766Z,95.40
2023-05-22T04:06:43.358Z,94.80
2023-05-22T04:09:13.421Z,94.80
2023-05-22T04:11:40.501Z,94.20
2023-05-22T04:14:07.515Z,94.10
2023-05-22T04:16:34.903Z,94.30
2023-05-22T04:19:03.470Z,94.20
2023-05-22T04:21:34.464Z,94.20
2023-05-22T04:24:02.294Z,94.70
2023-05-22T04:26:32.232Z,95.50
2023-05-22T04:28:59.510Z,95.90
2023-05-22T04:31:28.658Z,96.30
2023-05-22T04:33:56.260Z,96.30
2023-05-22T04:36:26.302Z,96.90
2023-05-22T04:38:54.230Z,97.60
2023-05-22T04:41:22.794Z,97.10
2023-05-22T04:43:53.022Z,97.30
2023-05-22T04:46:21.079Z,97.30
2023-05-22T04:48:48.167Z,96.80
2023-05-22T04:51:16.066Z,95.90
2023-05-22T04:53:43.421Z,95.60
2023-05-22T04:56:11.816Z,97.10
2023-05-22T04:58:40.389Z,96.80
2023-05-22T05:01:07.641Z,96.90
2023-05-22T05:03:34.732Z,96.30
2023-05-22T05:06:01.995Z,96.20
2023-05-22T05:08:29.032Z,96.00
2023-05-22T05:10:56.077Z,95.00
2023-05-22T05:13:23.613Z,93.50
2023-05-22T05:15:50.732Z,94.10
2023-05-22T05:18:19.628Z,94.70
2023-05-22T05:20:46.849Z,94.60
2023-05-22T05:23:14.112Z,93.60
2023-05-22T05:25:41.299Z,93.10
2023-05-22T05:28:11.435Z,93.20
2023-05-22T05:30:40.386Z,92.40
2023-05-22T05:33:30.363Z,92.30
2023-05-22T05:36:27.129Z,91.80
2023-05-22T05:38:54.966Z,92.00
2023-05-22T05:41:23.153Z,90.90
2023-05-22T05:44:00.017Z,89.90
2023-05-22T05:46:29.878Z,90.60
2023-05-22T05:48:58.329Z,90.40
2023-05-22T05:51:25.344Z,90.50
2023-05-22T05:53:53.353Z,90.00
2023-05-22T05:56:21.347Z,90.10
2023-05-22T05:58:48.688Z,89.10
2023-05-22T06:01:35.396Z,88.30
2023-05-22T06:04:04.258Z,85.70
2023-05-22T06:06:36.639Z,84.30
2023-05-22T06:09:10.346Z,85.80
2023-05-22T06:11:56.227Z,86.20
2023-05-22T06:14:23.969Z,85.70
2023-05-22T06:16:50.954Z,83.70
2023-05-22T06:19:18.022Z,83.50
2023-05-22T06:21:45.079Z,83.50
2023-05-22T06:24:12.185Z,79.50
2023-05-22T06:26:39.750Z,80.30
2023-05-22T06:29:07.301Z,80.00
2023-05-22T06:31:38.559Z,79.80
2023-05-22T06:34:06.625Z,79.70
2023-05-22T06:36:34.946Z,79.60
2023-05-22T06:39:02.958Z,78.40
2023-05-22T06:41:50.226Z,78.20
2023-05-22T06:44:17.356Z,75.20
2023-05-22T06:46:44.323Z,75.40
2023-05-22T06:49:18.615Z,76.90
2023-05-22T06:51:49.058Z,74.80
2023-05-22T06:54:17.476Z,75.80
2023-05-22T06:56:47.194Z,74.30
2023-05-22T06:59:18.218Z,74.40
2023-05-22T07:02:04.174Z,74.10
2023-05-22T07:04:49.630Z,73.60
2023-05-22T07:07:21.698Z,72.80
2023-05-22T07:09:48.882Z,70.20
2023-05-22T07:12:16.326Z,71.70
2023-05-22T07:14:44.714Z,71.50
2023-05-22T07:17:11.861Z,72.90
2023-05-22T07:19:43.024Z,72.90
2023-05-22T07:22:09.971Z,71.70
2023-05-22T07:24:39.157Z,72.30
2023-05-22T07:27:07.442Z,70.30
2023-05-22T07:29:35.290Z,71.90
2023-05-22T07:32:04.030Z,69.90
2023-05-22T07:34:35.061Z,70.30
2023-05-22T07:37:07.183Z,71.20
2023-05-22T07:39:34.305Z,71.40
2023-05-22T07:42:02.061Z,69.50
2023-05-22T07:44:31.672Z,71.40
2023-05-22T07:46:59.666Z,72.80
2023-05-22T07:49:28.898Z,72.50
2023-05-22T07:51:56.029Z,72.00
2023-05-22T07:54:25.561Z,72.90
2023-05-22T07:56:52.762Z,72.10
2023-05-22T07:59:21.700Z,72.40
2023-05-22T08:01:49.092Z,72.30
2023-05-22T08:04:16.447Z,73.40
2023-05-22T08:06:44.468Z,74.10
2023-05-22T08:09:11.946Z,72.80
2023-05-22T08:11:42.187Z,73.10
2023-05-22T08:14:09.541Z,71.40
2023-05-22T08:16:36.520Z,73.70
2023-05-22T08:19:04.016Z,72.40
2023-05-22T08:21:33.305Z,73.40
2023-05-22T08:24:00.898Z,74.50
2023-05-22T08:26:30.148Z,75.60
2023-05-22T08:28:59.039Z,75.90
2023-05-22T08:31:28.010Z,76.90
2023-05-22T08:34:02.345Z,77.20
2023-05-22T08:36:31.713Z,76.70
2023-05-22T08:38:58.926Z,77.00
2023-05-22T08:41:25.934Z,77.70
2023-05-22T08:43:53.079Z,75.60
2023-05-22T08:46:21.788Z,77.80
2023-05-22T08:48:48.933Z,77.80
2023-05-22T08:51:18.967Z,77.60
2023-05-22T08:53:46.346Z,78.40
2023-05-22T08:56:13.729Z,77.60
2023-05-22T08:58:40.971Z,78.00
2023-05-22T09:01:08.401Z,78.20
2023-05-22T09:03:36.086Z,77.40
2023-05-22T09:06:03.676Z,78.80
2023-05-22T09:08:30.890Z,78.50
2023-05-22T09:10:58.051Z,79.10
2023-05-22T09:13:29.300Z,79.00
2023-05-22T09:16:00.943Z,79.10
2023-05-22T09:18:29.160Z,80.70
2023-05-22T09:20:59.547Z,80.30
2023-05-22T09:23:28.211Z,82.70
2023-05-22T09:25:59.160Z,81.00
2023-05-22T09:28:26.585Z,81.40
2023-05-22T09:30:54.559Z,80.10
2023-05-22T09:33:22.715Z,79.30
2023-05-22T09:35:52.163Z,80.20
2023-05-22T09:38:19.146Z,78.20
2023-05-22T09:40:46.126Z,74.70
2023-05-22T09:43:17.521Z,76.20
2023-05-22T09:45:44.680Z,78.70
2023-05-22T09:48:12.730Z,75.80
2023-05-22T09:50:40.341Z,77.20
2023-05-22T09:53:08.991Z,75.80
2023-05-22T09:55:36.886Z,75.90
2023-05-22T09:58:05.013Z,73.30
2023-05-22T10:00:34.389Z,74.50
2023-05-22T10:03:09.109Z,75.60
2023-05-22T10:05:38.134Z,76.10
2023-05-22T10:08:13.303Z,74.50
2023-05-22T10:10:41.975Z,74.60
2023-05-22T10:13:09.295Z,73.00
2023-05-22T10:15:36.437Z,73.40
2023-05-22T10:18:04.201Z,72.20
2023-05-22T10:20:31.260Z,72.30
2023-05-22T10:22:58.767Z,72.30
2023-05-22T10:25:28.697Z,73.50
2023-05-22T10:27:56.305Z,73.70
2023-05-22T10:30:24.292Z,73.10
2023-05-22T10:33:17.047Z,73.80
2023-05-22T10:35:44.127Z,71.40
2023-05-22T10:38:29.933Z,74.90
2023-05-22T10:40:57.532Z,70.00
2023-05-22T10:43:24.685Z,69.00
2023-05-22T10:46:01.437Z,72.10
2023-05-22T10:48:28.459Z,70.20
2023-05-22T10:50:55.455Z,72.90
2023-05-22T10:53:23.641Z,72.60
2023-05-22T10:55:51.795Z,70.70
2023-05-22T10:58:19.311Z,72.10
2023-05-22T11:00:46.435Z,71.30
2023-05-22T11:03:18.416Z,72.00
2023-05-22T11:05:52.270Z,71.60
2023-05-22T11:08:19.586Z,72.40
2023-05-22T11:10:53.271Z,69.70
2023-05-22T11:13:20.274Z,69.70
2023-05-22T11:15:48.237Z,70.80
2023-05-22T11:18:16.966Z,71.60
2023-05-22T11:20:44.489Z,71.00
2023-05-22T11:23:11.472Z,71.50
2023-05-22T11:25:40.076Z,72.30
2023-05-22T11:28:07.926Z,71.50
2023-05-22T11:30:35.179Z,67.40
2023-05-22T11:33:02.577Z,69.20
2023-05-22T11:35:29.679Z,68.80
2023-05-22T11:37:57.271Z,68.00
2023-05-22T11:40:25.925Z,69.20
2023-05-22T11:42:53.136Z,70.00
2023-05-22T11:45:20.099Z,67.90
2023-05-22T11:47:47.232Z,68.00
2023-05-22T11:50:17.914Z,67.90
2023-05-22T11:52:50.412Z,68.10
2023-05-22T11:55:17.425Z,67.60
2023-05-22T11:57:44.484Z,67.00
2023-05-22T12:00:12.172Z,68.90
2023-05-22T12:02:39.609Z,70.70
2023-05-22T12:05:10.258Z,69.30
2023-05-22T12:07:37.829Z,70.80
2023-05-22T12:10:05.461Z,72.00
2023-05-22T12:12:32.415Z,71.00
2023-05-22T12:14:59.489Z,69.60
2023-05-22T12:17:28.672Z,70.10
2023-05-22T12:19:55.799Z,71.60
2023-05-22T12:22:26.919Z,68.40
2023-05-22T12:24:53.946Z,67.60
2023-05-22T12:27:20.984Z,71.20
2023-05-22T12:29:47.895Z,68.80
2023-05-22T12:32:15.000Z,68.30
2023-05-22T12:34:46.126Z,66.90
2023-05-22T12:37:19.344Z,68.50
2023-05-22T12:39:56.574Z,67.80
2023-05-22T12:42:24.411Z,69.60
2023-05-22T12:44:53.364Z,68.40
2023-05-22T12:47:20.592Z,68.20
2023-05-22T12:49:47.672Z,71.10
2023-05-22T12:52:14.720Z,68.90
2023-05-22T12:54:41.640Z,68.40
2023-05-22T12:57:09.089Z,68.70
2023-05-22T12:59:37.314Z,70.80
2023-05-22T13:02:05.496Z,71.50
2023-05-22T13:04:32.717Z,72.10
2023-05-22T13:06:59.908Z,69.90
2023-05-22T13:09:27.025Z,67.90
2023-05-22T13:11:54.171Z,68.20
2023-05-22T13:14:21.392Z,68.70
2023-05-22T13:16:48.455Z,68.30
2023-05-22T13:19:15.670Z,71.10
2023-05-22T13:21:43.024Z,67.50
2023-05-22T13:24:10.048Z,69.50
2023-05-22T13:26:37.007Z,65.30
2023-05-22T13:29:03.967Z,65.70
2023-05-22T13:31:33.411Z,68.10
2023-05-22T13:34:02.443Z,68.10
2023-05-22T13:36:30.933Z,68.30
2023-05-22T13:38:58.505Z,68.40
2023-05-22T13:41:25.854Z,67.40
2023-05-22T13:43:52.901Z,67.90
2023-05-22T13:46:21.240Z,66.50
2023-05-22T13:48:48.290Z,67.00
2023-05-22T13:51:15.441Z,68.20
2023-05-22T13:53:42.529Z,68.30
2023-05-22T13:56:09.493Z,67.70
2023-05-22T13:58:36.428Z,67.80
2023-05-22T14:01:03.401Z,66.50
2023-05-22T14:03:30.682Z,67.10
2023-05-22T14:05:57.798Z,67.80
2023-05-22T14:08:25.030Z,66.10
2023-05-22T14:10:52.150Z,65.70
2023-05-22T14:13:19.335Z,64.90
2023-05-22T14:15:49.635Z,67.40
2023-05-22T14:18:17.051Z,68.20
2023-05-22T14:20:44.793Z,68.00
2023-05-22T14:23:12.752Z,69.20
2023-05-22T14:25:45.911Z,69.10
2023-05-22T14:28:13.252Z,67.60
2023-05-22T14:30:40.693Z,68.60
2023-05-22T14:33:07.714Z,67.90
2023-05-22T14:35:34.734Z,67.70
2023-05-22T14:38:02.207Z,68.90
2023-05-22T14:40:29.137Z,65.50
2023-05-22T14:42:56.164Z,67.30
2023-05-22T14:45:23.121Z,69.30
2023-05-22T14:47:50.327Z,67.60
2023-05-22T14:50:19.779Z,66.30
2023-05-22T14:52:50.885Z,67.50
2023-05-22T14:55:18.201Z,65.40
2023-05-22T14:57:45.136Z,67.70
2023-05-22T15:00:12.862Z,67.30
2023-05-22T15:02:40.241Z,67.80
2023-05-22T15:05:08.100Z,67.60
2023-05-22T15:10:05.980Z,66.70
2023-05-22T15:12:33.297Z,68.10
2023-05-22T15:15:00.233Z,67.10
2023-05-22T15:17:27.303Z,66.90
2023-05-22T15:19:54.767Z,66.60
2023-05-22T15:22:21.702Z,65.10
2023-05-22T15:24:48.971Z,66.50
2023-05-22T15:27:17.375Z,66.90
2023-05-22T15:29:44.313Z,65.10
2023-05-22T15:32:11.445Z,66.60
2023-05-22T15:34:38.483Z,66.80
2023-05-22T15:37:05.763Z,67.10
2023-05-22T15:39:32.816Z,67.30
2023-05-22T15:42:06.372Z,67.10
2023-05-22T15:44:34.076Z,66.90
2023-05-22T15:47:01.175Z,67.10
2023-05-22T15:49:30.946Z,66.50
2023-05-22T15:51:58.563Z,66.50
2023-05-22T15:54:26.102Z,66.10
2023-05-22T15:56:53.046Z,67.80
2023-05-22T15:59:19.980Z,67.90
2023-05-22T16:01:46.995Z,69.10
2023-05-22T16:04:14.024Z,70.20
2023-05-22T16:06:41.112Z,69.50
2023-05-22T16:09:08.420Z,69.40
2023-05-22T16:11:35.942Z,70.20
2023-05-22T16:14:02.950Z,71.60
2023-05-22T16:16:29.952Z,72.30
2023-05-22T16:18:57.179Z,73.20
2023-05-22T16:21:24.163Z,72.40
2023-05-22T16:23:51.345Z,74.00
2023-05-22T16:26:18.340Z,73.40
2023-05-22T16:28:45.445Z,72.90
2023-05-22T16:31:13.167Z,73.60
2023-05-22T16:33:40.234Z,73.30
2023-05-22T16:36:07.313Z,72.50
2023-05-22T16:38:34.384Z,73.70
2023-05-22T16:41:01.502Z,74.80
2023-05-22T16:43:28.434Z,75.60
2023-05-22T16:45:55.665Z,76.20
2023-05-22T16:48:22.644Z,77.40
2023-05-22T16:50:49.715Z,78.00
2023-05-22T16:53:19.621Z,79.30
2023-05-22T16:55:46.673Z,79.90
2023-05-22T16:58:13.823Z,80.20
2023-05-22T17:00:41.316Z,80.30
2023-05-22T17:03:09.523Z,80.80
2023-05-22T17:05:37.389Z,81.20
2023-05-22T17:08:04.589Z,81.70
2023-05-22T17:10:31.556Z,82.10
2023-05-22T17:12:58.469Z,83.20
2023-05-22T17:15:25.497Z,81.70
2023-05-22T17:17:52.626Z,81.50
2023-05-22T17:20:22.196Z,81.70
2023-05-22T17:22:49.214Z,82.80
2023-05-22T17:25:16.294Z,82.10
2023-05-22T17:27:43.315Z,79.50
2023-05-22T17:30:11.207Z,79.60
2023-05-22T17:32:38.271Z,80.40
2023-05-22T17:35:06.894Z,79.00
2023-05-22T17:37:34.142Z,80.50
2023-05-22T17:40:01.226Z,81.10
2023-05-22T17:42:28.243Z,79.30
2023-05-22T17:44:55.342Z,77.00
2023-05-22T17:47:22.391Z,76.30
2023-05-22T17:49:49.382Z,75.80
2023-05-22T17:52:16.432Z,75.30
2023-05-22T17:54:43.698Z,75.60
2023-05-22T17:57:10.638Z,76.00
2023-05-22T17:59:39.974Z,75.00
2023-05-22T18:02:07.988Z,74.60
2023-05-22T18:04:35.624Z,75.60
2023-05-22T18:07:02.519Z,75.10
2023-05-22T18:09:29.446Z,74.20
2023-05-22T18:11:56.390Z,79.50
2023-05-22T18:14:23.338Z,82.00
2023-05-22T18:16:50.238Z,88.10
2023-05-22T18:19:17.342Z,92.90
2023-05-22T18:21:44.328Z,97.10
2023-05-22T18:24:12.723Z,98.60
2023-05-22T18:26:39.685Z,99.90
2023-05-22T18:29:06.607Z,99.90
2023-05-22T18:31:33.568Z,99.90
2023-05-22T18:34:00.711Z,99.90
2023-05-22T18:36:27.826Z,99.90
2023-05-22T18:38:55.235Z,99.90
2023-05-22T18:41:22.389Z,99.90
2023-05-22T18:43:49.415Z,99.90
2023-05-22T18:46:16.333Z,99.90
2023-05-22T18:48:43.316Z,99.90
2023-05-22T18:51:10.467Z,99.90
2023-05-22T18:53:37.382Z,99.90
2023-05-22T18:56:04.411Z,99.90
2023-05-22T18:58:31.443Z,99.90
2023-05-22T19:00:58.748Z,99.90
2023-05-22T19:03:25.936Z,99.90
2023-05-22T19:05:53.416Z,99.90
2023-05-22T19:08:20.421Z,99.90
2023-05-22T19:10:47.881Z,99.90
2023-05-22T19:13:14.957Z,99.90
2023-05-22T19:15:41.885Z,99.90
2023-05-22T19:18:08.820Z,99.90
2023-05-22T19:20:35.795Z,99.90
2023-05-22T19:23:02.972Z,99.90
2023-05-22T19:25:29.928Z,99.90
2023-05-22T19:27:56.880Z,99.90
2023-05-22T19:30:23.976Z,99.90
2023-05-22T19:32:51.383Z,99.90
2023-05-22T19:35:18.389Z,99.90
2023-05-22T19:37:46.085Z,99.90
2023-05-22T19:40:13.181Z,99.90
2023-05-22T19:42:41.473Z,99.90
2023-05-22T19:45:08.830Z,99.90
2023-05-22T19:47:36.060Z,99.90
2023-05-22T19:50:03.854Z,99.90
2023-05-22T19:52:30.848Z,99.90
2023-05-22T19:54:57.841Z,99.90
2023-05-22T19:57:24.838Z,99.90
2023-05-22T19:59:51.975Z,99.90
2023-05-22T20:02:19.048Z,99.90
2023-05-22T20:04:48.619Z,99.90
2023-05-22T20:07:15.779Z,99.90
2023-05-22T20:09:42.923Z,99.90
2023-05-22T20:12:10.586Z,99.90
2023-05-22T20:14:37.952Z,99.90
2023-05-22T20:17:05.596Z,99.90
2023-05-22T20:19:34.685Z,99.90
2023-05-22T20:22:02.250Z,99.90
2023-05-22T20:24:29.886Z,99.90
2023-05-22T20:26:57.049Z,99.90
2023-05-22T20:29:23.990Z,99.90
2023-05-22T20:31:54.754Z,99.90
2023-05-22T20:34:22.477Z,99.90
2023-05-22T20:36:49.452Z,99.90
2023-05-22T20:39:18.207Z,99.90
2023-05-22T20:41:46.586Z,99.90
2023-05-22T20:44:13.537Z,99.90
2023-05-22T20:46:40.718Z,99.90
2023-05-22T20:49:07.749Z,99.90
2023-05-22T20:51:34.906Z,99.90
2023-05-22T20:54:01.891Z,99.90
2023-05-22T20:56:30.135Z,99.90
2023-05-22T20:58:57.297Z,99.90
2023-05-22T21:01:25.003Z,99.90
2023-05-22T21:03:54.571Z,99.90
2023-05-22T21:06:21.626Z,99.90
2023-05-22T21:08:49.034Z,99.90
2023-05-22T21:11:19.934Z,99.90
2023-05-22T21:13:47.071Z,99.90
2023-05-22T21:16:13.969Z,99.90
2023-05-22T21:18:40.963Z,99.90
2023-05-22T21:21:07.844Z,99.90
2023-05-22T21:23:35.018Z,99.90
2023-05-22T21:26:02.397Z,99.90
2023-05-22T21:28:29.452Z,99.90
2023-05-22T21:30:56.539Z,99.90
2023-05-22T21:33:23.562Z,99.90
2023-05-22T21:35:50.443Z,99.90
2023-05-22T21:38:17.498Z,99.90
2023-05-22T21:40:44.570Z,99.90
2023-05-22T21:43:11.591Z,99.90
2023-05-22T21:45:39.046Z,99.90
2023-05-22T21:48:06.218Z,99.90
2023-05-22T21:50:33.315Z,99.90
2023-05-22T21:53:00.529Z,99.90
2023-05-22T21:55:27.698Z,99.90
2023-05-22T21:57:55.633Z,99.90
2023-05-22T22:00:22.994Z,99.90
2023-05-22T22:02:50.027Z,99.90
2023-05-22T22:05:18.904Z,99.90
2023-05-22T22:07:46.085Z,99.90
2023-05-22T22:10:13.029Z,99.90
2023-05-22T22:12:40.063Z,99.90
2023-05-22T22:15:07.452Z,99.90
2023-05-22T22:17:34.867Z,99.90
2023-05-22T22:20:01.920Z,99.90
2023-05-22T22:22:29.107Z,99.90
2023-05-22T22:24:56.228Z,99.90
2023-05-22T22:27:23.800Z,99.90
2023-05-22T22:29:50.847Z,99.90
2023-05-22T22:32:17.865Z,99.90
2023-05-22T22:34:45.395Z,99.90
2023-05-22T22:37:14.007Z,99.90
2023-05-22T22:39:40.996Z,99.90
2023-05-22T22:42:08.158Z,99.90
2023-05-22T22:44:35.087Z,99.90
2023-05-22T22:47:02.281Z,99.90
2023-05-22T22:49:29.276Z,99.90
2023-05-22T22:51:56.624Z,99.90
2023-05-22T22:54:23.833Z,99.90
2023-05-22T22:56:51.478Z,99.90
2023-05-22T22:59:18.412Z,99.90
2023-05-22T23:01:45.564Z,99.90
2023-05-22T23:04:14.922Z,99.90
2023-05-22T23:06:42.712Z,99.90
2023-05-22T23:09:11.177Z,99.90
2023-05-22T23:11:38.527Z,99.90
2023-05-22T23:14:07.528Z,99.90
2023-05-22T23:16:37.793Z,99.90
2023-05-22T23:19:05.174Z,99.90
2023-05-22T23:21:32.814Z,99.90
2023-05-22T23:24:00.563Z,99.90
2023-05-22T23:26:27.939Z,99.90
2023-05-22T23:28:54.936Z,99.90
2023-05-22T23:31:27.052Z,99.90
2023-05-22T23:33:54.332Z,99.90
2023-05-22T23:36:21.314Z,99.90
2023-05-22T23:38:48.348Z,99.90
2023-05-22T23:41:16.255Z,99.90
2023-05-22T23:43:43.494Z,99.90
2023-05-22T23:46:13.353Z,99.90
2023-05-22T23:48:41.665Z,99.90
2023-05-22T23:51:09.565Z,99.90
2023-05-22T23:53:36.632Z,99.90
2023-05-22T23:56:06.586Z,99.90
2023-05-22T23:58:33.850Z,99.90
